sensor_id;sensor_type;location;lat;lon;timestamp;P1;durP1;ratioP1;P2;durP2;ratioP2
18360;SDS011;9308;48.550;9.108;2022-12-19T00:01:41;71.27;;;49.93;;
18360;SDS011;9308;48.550;9.108;2022-12-19T00:04:09;71.40;;;50.10;;
18360;SDS011;9308;48.550;9.108;2022-12-19T00:06:36;68.73;;;49.00;;
18360;SDS011;9308;48.550;9.108;2022-12-19T00:09:03;64.17;;;47.30;;
18360;SDS011;9308;48.550;9.108;2022-12-19T00:11:30;71.03;;;46.97;;
18360;SDS011;9308;48.550;9.108;2022-12-19T00:13:56;69.10;;;47.00;;
18360;SDS011;9308;48.550;9.108;2022-12-19T00:16:23;63.77;;;46.40;;
18360;SDS011;9308;48.550;9.108;2022-12-19T00:18:51;65.77;;;46.70;;
18360;SDS011;9308;48.550;9.108;2022-12-19T00:21:20;67.60;;;47.33;;
18360;SDS011;9308;48.550;9.108;2022-12-19T00:23:46;69.37;;;47.50;;
18360;SDS011;9308;48.550;9.108;2022-12-19T00:26:13;63.00;;;45.80;;
18360;SDS011;9308;48.550;9.108;2022-12-19T00:28:41;65.77;;;47.47;;
18360;SDS011;9308;48.550;9.108;2022-12-19T00:31:08;66.13;;;48.40;;
18360;SDS011;9308;48.550;9.108;2022-12-19T00:33:33;62.47;;;47.70;;
18360;SDS011;9308;48.550;9.108;2022-12-19T00:35:59;68.10;;;50.30;;
18360;SDS011;9308;48.550;9.108;2022-12-19T00:38:27;69.17;;;47.83;;
18360;SDS011;9308;48.550;9.108;2022-12-19T00:40:53;66.33;;;49.50;;
18360;SDS011;9308;48.550;9.108;2022-12-19T00:43:18;66.83;;;48.57;;
18360;SDS011;9308;48.550;9.108;2022-12-19T00:45:44;65.23;;;47.97;;
18360;SDS011;9308;48.550;9.108;2022-12-19T00:48:09;68.33;;;47.70;;
18360;SDS011;9308;48.550;9.108;2022-12-19T00:50:35;65.50;;;48.30;;
18360;SDS011;9308;48.550;9.108;2022-12-19T00:53:00;65.43;;;48.00;;
18360;SDS011;9308;48.550;9.108;2022-12-19T00:55:26;63.77;;;46.57;;
18360;SDS011;9308;48.550;9.108;2022-12-19T00:57:51;59.80;;;45.43;;
18360;SDS011;9308;48.550;9.108;2022-12-19T01:00:17;59.73;;;44.90;;
18360;SDS011;9308;48.550;9.108;2022-12-19T01:02:42;60.80;;;46.17;;
18360;SDS011;9308;48.550;9.108;2022-12-19T01:05:09;60.90;;;45.63;;
18360;SDS011;9308;48.550;9.108;2022-12-19T01:07:34;63.10;;;45.80;;
18360;SDS011;9308;48.550;9.108;2022-12-19T01:10:00;67.03;;;46.80;;
18360;SDS011;9308;48.550;9.108;2022-12-19T01:12:26;62.80;;;47.70;;
18360;SDS011;9308;48.550;9.108;2022-12-19T01:15:10;66.70;;;47.27;;
18360;SDS011;9308;48.550;9.108;2022-12-19T01:17:36;60.40;;;44.47;;
18360;SDS011;9308;48.550;9.108;2022-12-19T01:20:01;64.90;;;48.47;;
18360;SDS011;9308;48.550;9.108;2022-12-19T01:22:26;69.97;;;48.10;;
18360;SDS011;9308;48.550;9.108;2022-12-19T01:24:52;62.13;;;46.17;;
18360;SDS011;9308;48.550;9.108;2022-12-19T01:27:17;63.23;;;46.73;;
18360;SDS011;9308;48.550;9.108;2022-12-19T01:29:43;68.20;;;46.77;;
18360;SDS011;9308;48.550;9.108;2022-12-19T01:32:08;67.30;;;46.00;;
18360;SDS011;9308;48.550;9.108;2022-12-19T01:34:34;69.10;;;49.63;;
18360;SDS011;9308;48.550;9.108;2022-12-19T01:36:59;65.47;;;44.70;;
18360;SDS011;9308;48.550;9.108;2022-12-19T01:39:24;65.57;;;46.97;;
18360;SDS011;9308;48.550;9.108;2022-12-19T01:41:50;62.60;;;45.17;;
18360;SDS011;9308;48.550;9.108;2022-12-19T01:44:15;66.77;;;46.50;;
18360;SDS011;9308;48.550;9.108;2022-12-19T01:46:47;64.70;;;45.60;;
18360;SDS011;9308;48.550;9.108;2022-12-19T01:49:32;69.00;;;48.30;;
18360;SDS011;9308;48.550;9.108;2022-12-19T01:52:00;65.00;;;44.83;;
18360;SDS011;9308;48.550;9.108;2022-12-19T01:54:30;69.53;;;48.50;;
18360;SDS011;9308;48.550;9.108;2022-12-19T01:56:58;65.60;;;46.10;;
18360;SDS011;9308;48.550;9.108;2022-12-19T01:59:39;60.00;;;44.40;;
18360;SDS011;9308;48.550;9.108;2022-12-19T02:02:10;61.97;;;45.10;;
18360;SDS011;9308;48.550;9.108;2022-12-19T02:04:39;59.03;;;43.50;;
18360;SDS011;9308;48.550;9.108;2022-12-19T02:07:06;68.03;;;45.17;;
18360;SDS011;9308;48.550;9.108;2022-12-19T02:09:32;63.67;;;41.87;;
18360;SDS011;9308;48.550;9.108;2022-12-19T02:11:58;60.20;;;42.23;;
18360;SDS011;9308;48.550;9.108;2022-12-19T02:14:24;62.83;;;42.80;;
18360;SDS011;9308;48.550;9.108;2022-12-19T02:16:55;60.43;;;40.50;;
18360;SDS011;9308;48.550;9.108;2022-12-19T02:30:48;54.40;;;39.53;;
18360;SDS011;9308;48.550;9.108;2022-12-19T02:33:16;65.17;;;42.47;;
18360;SDS011;9308;48.550;9.108;2022-12-19T02:35:50;60.17;;;41.40;;
18360;SDS011;9308;48.550;9.108;2022-12-19T02:38:21;63.10;;;42.30;;
18360;SDS011;9308;48.550;9.108;2022-12-19T02:40:56;55.57;;;38.63;;
18360;SDS011;9308;48.550;9.108;2022-12-19T02:43:31;57.13;;;40.83;;
18360;SDS011;9308;48.550;9.108;2022-12-19T02:46:01;58.83;;;39.87;;
18360;SDS011;9308;48.550;9.108;2022-12-19T02:48:28;60.10;;;41.50;;
18360;SDS011;9308;48.550;9.108;2022-12-19T02:50:54;57.90;;;40.90;;
18360;SDS011;9308;48.550;9.108;2022-12-19T02:53:19;61.70;;;41.73;;
18360;SDS011;9308;48.550;9.108;2022-12-19T02:56:04;59.53;;;42.03;;
18360;SDS011;9308;48.550;9.108;2022-12-19T03:01:43;60.57;;;41.13;;
18360;SDS011;9308;48.550;9.108;2022-12-19T03:04:21;62.93;;;42.97;;
18360;SDS011;9308;48.550;9.108;2022-12-19T03:09:44;63.33;;;42.13;;
18360;SDS011;9308;48.550;9.108;2022-12-19T03:12:15;56.87;;;41.57;;
18360;SDS011;9308;48.550;9.108;2022-12-19T03:14:48;56.87;;;39.70;;
18360;SDS011;9308;48.550;9.108;2022-12-19T03:17:15;56.83;;;39.70;;
18360;SDS011;9308;48.550;9.108;2022-12-19T03:19:40;54.70;;;38.37;;
18360;SDS011;9308;48.550;9.108;2022-12-19T03:22:06;57.07;;;37.97;;
18360;SDS011;9308;48.550;9.108;2022-12-19T03:24:32;56.83;;;38.80;;
18360;SDS011;9308;48.550;9.108;2022-12-19T03:27:40;56.13;;;38.77;;
18360;SDS011;9308;48.550;9.108;2022-12-19T03:29:53;54.97;;;37.23;;
18360;SDS011;9308;48.550;9.108;2022-12-19T03:32:24;52.37;;;35.20;;
18360;SDS011;9308;48.550;9.108;2022-12-19T03:35:14;53.53;;;34.13;;
18360;SDS011;9308;48.550;9.108;2022-12-19T03:37:40;50.20;;;34.90;;
18360;SDS011;9308;48.550;9.108;2022-12-19T03:40:12;58.10;;;37.40;;
18360;SDS011;9308;48.550;9.108;2022-12-19T03:42:41;54.80;;;36.03;;
18360;SDS011;9308;48.550;9.108;2022-12-19T03:48:05;52.40;;;36.53;;
18360;SDS011;9308;48.550;9.108;2022-12-19T03:50:38;54.63;;;34.83;;
18360;SDS011;9308;48.550;9.108;2022-12-19T03:56:14;51.27;;;33.40;;
18360;SDS011;9308;48.550;9.108;2022-12-19T03:58:47;49.70;;;34.17;;
18360;SDS011;9308;48.550;9.108;2022-12-19T04:01:17;51.50;;;32.37;;
18360;SDS011;9308;48.550;9.108;2022-12-19T04:03:43;48.50;;;33.33;;
18360;SDS011;9308;48.550;9.108;2022-12-19T04:06:09;53.27;;;34.97;;
18360;SDS011;9308;48.550;9.108;2022-12-19T04:08:35;51.00;;;35.43;;
18360;SDS011;9308;48.550;9.108;2022-12-19T04:11:04;46.77;;;33.60;;
18360;SDS011;9308;48.550;9.108;2022-12-19T04:13:50;46.83;;;33.40;;
18360;SDS011;9308;48.550;9.108;2022-12-19T04:18:57;45.80;;;33.10;;
18360;SDS011;9308;48.550;9.108;2022-12-19T04:21:34;45.73;;;31.90;;
18360;SDS011;9308;48.550;9.108;2022-12-19T04:24:26;39.33;;;29.70;;
18360;SDS011;9308;48.550;9.108;2022-12-19T04:26:57;52.03;;;34.00;;
18360;SDS011;9308;48.550;9.108;2022-12-19T04:29:25;45.07;;;32.60;;
18360;SDS011;9308;48.550;9.108;2022-12-19T04:31:54;47.20;;;32.30;;
18360;SDS011;9308;48.550;9.108;2022-12-19T04:34:20;46.67;;;33.20;;
18360;SDS011;9308;48.550;9.108;2022-12-19T04:36:46;44.63;;;31.53;;
18360;SDS011;9308;48.550;9.108;2022-12-19T04:39:13;50.60;;;33.70;;
18360;SDS011;9308;48.550;9.108;2022-12-19T04:41:38;51.10;;;33.00;;
18360;SDS011;9308;48.550;9.108;2022-12-19T04:44:04;48.63;;;35.90;;
18360;SDS011;9308;48.550;9.108;2022-12-19T04:46:29;49.40;;;34.03;;
18360;SDS011;9308;48.550;9.108;2022-12-19T04:48:55;56.73;;;38.50;;
18360;SDS011;9308;48.550;9.108;2022-12-19T04:51:20;47.33;;;34.40;;
18360;SDS011;9308;48.550;9.108;2022-12-19T04:53:46;45.47;;;34.40;;
18360;SDS011;9308;48.550;9.108;2022-12-19T04:56:11;48.80;;;33.60;;
18360;SDS011;9308;48.550;9.108;2022-12-19T04:58:36;50.77;;;34.83;;
18360;SDS011;9308;48.550;9.108;2022-12-19T05:01:05;44.90;;;32.97;;
18360;SDS011;9308;48.550;9.108;2022-12-19T05:03:32;48.10;;;32.53;;
18360;SDS011;9308;48.550;9.108;2022-12-19T05:06:04;46.67;;;32.60;;
18360;SDS011;9308;48.550;9.108;2022-12-19T05:08:31;42.57;;;33.03;;
18360;SDS011;9308;48.550;9.108;2022-12-19T05:11:00;45.73;;;32.60;;
18360;SDS011;9308;48.550;9.108;2022-12-19T05:13:27;47.00;;;33.27;;
18360;SDS011;9308;48.550;9.108;2022-12-19T05:15:55;46.23;;;31.57;;
18360;SDS011;9308;48.550;9.108;2022-12-19T05:18:24;53.17;;;32.60;;
18360;SDS011;9308;48.550;9.108;2022-12-19T05:20:50;61.20;;;39.33;;
18360;SDS011;9308;48.550;9.108;2022-12-19T05:23:15;49.40;;;34.70;;
18360;SDS011;9308;48.550;9.108;2022-12-19T05:25:41;48.40;;;35.80;;
18360;SDS011;9308;48.550;9.108;2022-12-19T05:28:06;46.93;;;31.13;;
18360;SDS011;9308;48.550;9.108;2022-12-19T05:30:32;49.30;;;32.63;;
18360;SDS011;9308;48.550;9.108;2022-12-19T05:32:57;49.83;;;32.50;;
18360;SDS011;9308;48.550;9.108;2022-12-19T05:35:22;49.23;;;32.87;;
18360;SDS011;9308;48.550;9.108;2022-12-19T05:37:48;52.80;;;35.63;;
18360;SDS011;9308;48.550;9.108;2022-12-19T05:40:13;46.97;;;31.80;;
18360;SDS011;9308;48.550;9.108;2022-12-19T05:42:39;44.70;;;32.33;;
18360;SDS011;9308;48.550;9.108;2022-12-19T05:45:04;47.23;;;31.77;;
18360;SDS011;9308;48.550;9.108;2022-12-19T05:47:30;45.87;;;31.90;;
18360;SDS011;9308;48.550;9.108;2022-12-19T05:49:56;48.30;;;32.50;;
18360;SDS011;9308;48.550;9.108;2022-12-19T05:52:21;51.00;;;32.90;;
18360;SDS011;9308;48.550;9.108;2022-12-19T05:54:48;48.53;;;31.50;;
18360;SDS011;9308;48.550;9.108;2022-12-19T05:57:14;44.43;;;29.63;;
18360;SDS011;9308;48.550;9.108;2022-12-19T05:59:40;43.70;;;31.57;;
18360;SDS011;9308;48.550;9.108;2022-12-19T06:02:06;48.70;;;30.70;;
18360;SDS011;9308;48.550;9.108;2022-12-19T06:04:31;42.93;;;30.60;;
18360;SDS011;9308;48.550;9.108;2022-12-19T06:06:57;42.63;;;29.20;;
18360;SDS011;9308;48.550;9.108;2022-12-19T06:09:22;40.60;;;27.47;;
18360;SDS011;9308;48.550;9.108;2022-12-19T06:11:48;40.70;;;29.00;;
18360;SDS011;9308;48.550;9.108;2022-12-19T06:14:13;38.63;;;27.63;;
18360;SDS011;9308;48.550;9.108;2022-12-19T06:16:39;39.70;;;27.57;;
18360;SDS011;9308;48.550;9.108;2022-12-19T06:19:04;37.50;;;27.83;;
18360;SDS011;9308;48.550;9.108;2022-12-19T06:21:29;41.03;;;28.13;;
18360;SDS011;9308;48.550;9.108;2022-12-19T06:23:55;36.70;;;26.80;;
18360;SDS011;9308;48.550;9.108;2022-12-19T06:26:21;39.90;;;25.77;;
18360;SDS011;9308;48.550;9.108;2022-12-19T06:28:47;40.37;;;27.87;;
18360;SDS011;9308;48.550;9.108;2022-12-19T06:31:14;38.27;;;26.53;;
18360;SDS011;9308;48.550;9.108;2022-12-19T06:33:40;41.87;;;28.00;;
18360;SDS011;9308;48.550;9.108;2022-12-19T06:36:06;39.63;;;28.23;;
18360;SDS011;9308;48.550;9.108;2022-12-19T06:38:35;42.73;;;29.27;;
18360;SDS011;9308;48.550;9.108;2022-12-19T06:41:04;44.80;;;26.93;;
18360;SDS011;9308;48.550;9.108;2022-12-19T06:43:48;40.40;;;28.20;;
18360;SDS011;9308;48.550;9.108;2022-12-19T06:46:13;37.73;;;26.07;;
18360;SDS011;9308;48.550;9.108;2022-12-19T06:48:39;38.87;;;26.50;;
18360;SDS011;9308;48.550;9.108;2022-12-19T06:51:04;41.27;;;29.10;;
18360;SDS011;9308;48.550;9.108;2022-12-19T06:53:30;40.20;;;28.30;;
18360;SDS011;9308;48.550;9.108;2022-12-19T06:55:56;36.67;;;28.10;;
18360;SDS011;9308;48.550;9.108;2022-12-19T06:58:23;38.67;;;28.10;;
18360;SDS011;9308;48.550;9.108;2022-12-19T07:00:48;42.10;;;31.23;;
18360;SDS011;9308;48.550;9.108;2022-12-19T07:03:15;42.57;;;30.03;;
18360;SDS011;9308;48.550;9.108;2022-12-19T07:05:43;42.63;;;30.10;;
18360;SDS011;9308;48.550;9.108;2022-12-19T07:08:09;50.10;;;31.07;;
18360;SDS011;9308;48.550;9.108;2022-12-19T07:10:35;47.50;;;32.70;;
18360;SDS011;9308;48.550;9.108;2022-12-19T07:13:00;46.47;;;30.97;;
18360;SDS011;9308;48.550;9.108;2022-12-19T07:15:26;46.90;;;31.67;;
18360;SDS011;9308;48.550;9.108;2022-12-19T07:17:53;45.57;;;29.53;;
18360;SDS011;9308;48.550;9.108;2022-12-19T07:20:19;38.20;;;27.30;;
18360;SDS011;9308;48.550;9.108;2022-12-19T07:22:45;40.03;;;27.40;;
18360;SDS011;9308;48.550;9.108;2022-12-19T07:25:11;37.03;;;25.77;;
18360;SDS011;9308;48.550;9.108;2022-12-19T07:27:37;43.60;;;29.00;;
18360;SDS011;9308;48.550;9.108;2022-12-19T07:30:03;40.73;;;30.87;;
18360;SDS011;9308;48.550;9.108;2022-12-19T07:32:31;39.37;;;29.43;;
18360;SDS011;9308;48.550;9.108;2022-12-19T07:34:57;43.90;;;30.07;;
18360;SDS011;9308;48.550;9.108;2022-12-19T07:37:22;41.17;;;28.30;;
18360;SDS011;9308;48.550;9.108;2022-12-19T07:39:48;38.00;;;29.10;;
18360;SDS011;9308;48.550;9.108;2022-12-19T07:42:13;41.37;;;31.80;;
18360;SDS011;9308;48.550;9.108;2022-12-19T07:44:39;41.80;;;29.60;;
18360;SDS011;9308;48.550;9.108;2022-12-19T07:47:04;47.90;;;30.70;;
18360;SDS011;9308;48.550;9.108;2022-12-19T07:49:30;49.80;;;33.93;;
18360;SDS011;9308;48.550;9.108;2022-12-19T07:51:55;49.67;;;35.83;;
18360;SDS011;9308;48.550;9.108;2022-12-19T07:54:20;49.70;;;34.33;;
18360;SDS011;9308;48.550;9.108;2022-12-19T07:56:46;41.43;;;30.60;;
18360;SDS011;9308;48.550;9.108;2022-12-19T07:59:12;42.40;;;30.90;;
18360;SDS011;9308;48.550;9.108;2022-12-19T08:01:37;45.20;;;29.47;;
18360;SDS011;9308;48.550;9.108;2022-12-19T08:04:03;43.70;;;30.20;;
18360;SDS011;9308;48.550;9.108;2022-12-19T08:06:29;42.80;;;30.37;;
18360;SDS011;9308;48.550;9.108;2022-12-19T08:08:54;43.70;;;29.30;;
18360;SDS011;9308;48.550;9.108;2022-12-19T08:11:20;41.83;;;30.00;;
18360;SDS011;9308;48.550;9.108;2022-12-19T08:13:54;39.73;;;29.10;;
18360;SDS011;9308;48.550;9.108;2022-12-19T08:16:20;42.07;;;28.40;;
18360;SDS011;9308;48.550;9.108;2022-12-19T08:18:46;39.70;;;28.73;;
18360;SDS011;9308;48.550;9.108;2022-12-19T08:21:12;37.70;;;26.70;;
18360;SDS011;9308;48.550;9.108;2022-12-19T08:23:38;40.23;;;27.50;;
18360;SDS011;9308;48.550;9.108;2022-12-19T08:26:05;37.43;;;26.50;;
18360;SDS011;9308;48.550;9.108;2022-12-19T08:28:32;36.70;;;26.33;;
18360;SDS011;9308;48.550;9.108;2022-12-19T08:31:02;37.00;;;25.00;;
18360;SDS011;9308;48.550;9.108;2022-12-19T08:33:33;34.80;;;25.50;;
18360;SDS011;9308;48.550;9.108;2022-12-19T08:36:02;36.47;;;24.27;;
18360;SDS011;9308;48.550;9.108;2022-12-19T08:38:28;40.83;;;26.27;;
18360;SDS011;9308;48.550;9.108;2022-12-19T08:40:54;35.77;;;25.83;;
18360;SDS011;9308;48.550;9.108;2022-12-19T08:43:19;32.50;;;23.73;;
18360;SDS011;9308;48.550;9.108;2022-12-19T08:45:48;33.90;;;22.67;;
18360;SDS011;9308;48.550;9.108;2022-12-19T08:48:15;32.23;;;22.60;;
18360;SDS011;9308;48.550;9.108;2022-12-19T08:50:47;33.90;;;24.57;;
18360;SDS011;9308;48.550;9.108;2022-12-19T08:53:24;35.50;;;24.07;;
18360;SDS011;9308;48.550;9.108;2022-12-19T08:55:54;34.33;;;25.40;;
18360;SDS011;9308;48.550;9.108;2022-12-19T08:58:24;33.60;;;23.20;;
18360;SDS011;9308;48.550;9.108;2022-12-19T09:00:50;30.63;;;22.83;;
18360;SDS011;9308;48.550;9.108;2022-12-19T09:03:17;32.60;;;24.30;;
18360;SDS011;9308;48.550;9.108;2022-12-19T09:05:53;30.70;;;23.73;;
18360;SDS011;9308;48.550;9.108;2022-12-19T09:08:23;32.50;;;23.17;;
18360;SDS011;9308;48.550;9.108;2022-12-19T09:10:50;28.60;;;22.93;;
18360;SDS011;9308;48.550;9.108;2022-12-19T09:13:20;30.70;;;23.07;;
18360;SDS011;9308;48.550;9.108;2022-12-19T09:15:46;33.10;;;23.67;;
18360;SDS011;9308;48.550;9.108;2022-12-19T09:18:11;33.60;;;24.90;;
18360;SDS011;9308;48.550;9.108;2022-12-19T09:20:37;35.57;;;27.07;;
18360;SDS011;9308;48.550;9.108;2022-12-19T09:23:02;34.70;;;27.00;;
18360;SDS011;9308;48.550;9.108;2022-12-19T09:25:28;46.53;;;35.30;;
18360;SDS011;9308;48.550;9.108;2022-12-19T09:27:53;45.50;;;34.13;;
18360;SDS011;9308;48.550;9.108;2022-12-19T09:30:19;40.60;;;33.00;;
18360;SDS011;9308;48.550;9.108;2022-12-19T09:32:44;67.87;;;47.10;;
18360;SDS011;9308;48.550;9.108;2022-12-19T09:35:10;61.90;;;48.07;;
18360;SDS011;9308;48.550;9.108;2022-12-19T09:37:35;63.87;;;47.50;;
18360;SDS011;9308;48.550;9.108;2022-12-19T09:40:01;56.60;;;43.37;;
18360;SDS011;9308;48.550;9.108;2022-12-19T09:47:33;56.37;;;41.70;;
18360;SDS011;9308;48.550;9.108;2022-12-19T09:49:59;55.53;;;39.40;;
18360;SDS011;9308;48.550;9.108;2022-12-19T09:55:18;46.13;;;37.07;;
18360;SDS011;9308;48.550;9.108;2022-12-19T09:57:53;47.33;;;35.63;;
18360;SDS011;9308;48.550;9.108;2022-12-19T10:00:23;46.20;;;33.73;;
18360;SDS011;9308;48.550;9.108;2022-12-19T10:08:15;38.57;;;28.47;;
18360;SDS011;9308;48.550;9.108;2022-12-19T10:11:00;34.00;;;27.43;;
18360;SDS011;9308;48.550;9.108;2022-12-19T10:16:18;37.20;;;26.87;;
18360;SDS011;9308;48.550;9.108;2022-12-19T10:21:28;30.10;;;24.10;;
18360;SDS011;9308;48.550;9.108;2022-12-19T10:24:20;31.30;;;23.03;;
18360;SDS011;9308;48.550;9.108;2022-12-19T10:27:00;27.93;;;22.50;;
18360;SDS011;9308;48.550;9.108;2022-12-19T10:35:10;29.77;;;22.37;;
18360;SDS011;9308;48.550;9.108;2022-12-19T10:37:39;31.40;;;22.80;;
18360;SDS011;9308;48.550;9.108;2022-12-19T10:40:26;30.77;;;23.27;;
18360;SDS011;9308;48.550;9.108;2022-12-19T10:43:02;29.60;;;21.77;;
18360;SDS011;9308;48.550;9.108;2022-12-19T10:45:39;28.83;;;21.60;;
18360;SDS011;9308;48.550;9.108;2022-12-19T10:48:10;27.63;;;21.23;;
18360;SDS011;9308;48.550;9.108;2022-12-19T10:50:43;23.50;;;19.53;;
18360;SDS011;9308;48.550;9.108;2022-12-19T10:53:09;28.20;;;20.17;;
18360;SDS011;9308;48.550;9.108;2022-12-19T10:55:37;25.10;;;18.90;;
18360;SDS011;9308;48.550;9.108;2022-12-19T10:58:11;24.63;;;18.23;;
18360;SDS011;9308;48.550;9.108;2022-12-19T11:03:34;24.30;;;18.57;;
18360;SDS011;9308;48.550;9.108;2022-12-19T11:06:01;21.97;;;17.70;;
18360;SDS011;9308;48.550;9.108;2022-12-19T11:08:29;22.20;;;17.83;;
18360;SDS011;9308;48.550;9.108;2022-12-19T11:15:59;22.20;;;17.70;;
18360;SDS011;9308;48.550;9.108;2022-12-19T11:29:44;19.63;;;17.30;;
18360;SDS011;9308;48.550;9.108;2022-12-19T11:31:46;21.87;;;17.63;;
18360;SDS011;9308;48.550;9.108;2022-12-19T11:34:19;21.10;;;18.27;;
18360;SDS011;9308;48.550;9.108;2022-12-19T11:36:48;22.40;;;18.27;;
18360;SDS011;9308;48.550;9.108;2022-12-19T11:39:24;20.07;;;17.30;;
18360;SDS011;9308;48.550;9.108;2022-12-19T11:44:59;22.23;;;18.20;;
18360;SDS011;9308;48.550;9.108;2022-12-19T11:47:38;20.80;;;18.10;;
18360;SDS011;9308;48.550;9.108;2022-12-19T11:50:19;18.83;;;16.10;;
18360;SDS011;9308;48.550;9.108;2022-12-19T11:52:48;21.00;;;17.83;;
18360;SDS011;9308;48.550;9.108;2022-12-19T11:55:23;19.80;;;16.00;;
18360;SDS011;9308;48.550;9.108;2022-12-19T11:57:51;24.63;;;18.93;;
18360;SDS011;9308;48.550;9.108;2022-12-19T12:00:19;22.30;;;18.83;;
18360;SDS011;9308;48.550;9.108;2022-12-19T12:08:59;32.03;;;20.27;;
18360;SDS011;9308;48.550;9.108;2022-12-19T12:11:25;24.00;;;19.23;;
18360;SDS011;9308;48.550;9.108;2022-12-19T12:22:17;22.10;;;17.90;;
18360;SDS011;9308;48.550;9.108;2022-12-19T12:25:09;20.97;;;16.83;;
18360;SDS011;9308;48.550;9.108;2022-12-19T12:27:46;19.77;;;17.67;;
18360;SDS011;9308;48.550;9.108;2022-12-19T12:30:20;21.30;;;17.67;;
18360;SDS011;9308;48.550;9.108;2022-12-19T12:32:51;19.37;;;17.40;;
18360;SDS011;9308;48.550;9.108;2022-12-19T12:35:34;22.60;;;18.07;;
18360;SDS011;9308;48.550;9.108;2022-12-19T12:46:17;20.83;;;17.60;;
18360;SDS011;9308;48.550;9.108;2022-12-19T12:48:46;23.87;;;18.70;;
18360;SDS011;9308;48.550;9.108;2022-12-19T12:51:17;23.23;;;18.53;;
18360;SDS011;9308;48.550;9.108;2022-12-19T12:53:44;29.30;;;21.03;;
18360;SDS011;9308;48.550;9.108;2022-12-19T12:56:12;32.80;;;26.50;;
18360;SDS011;9308;48.550;9.108;2022-12-19T12:58:41;38.67;;;31.00;;
18360;SDS011;9308;48.550;9.108;2022-12-19T13:01:24;35.40;;;31.63;;
18360;SDS011;9308;48.550;9.108;2022-12-19T13:03:55;42.73;;;35.37;;
18360;SDS011;9308;48.550;9.108;2022-12-19T13:07:13;42.63;;;36.10;;
18360;SDS011;9308;48.550;9.108;2022-12-19T13:17:00;42.50;;;35.37;;
18360;SDS011;9308;48.550;9.108;2022-12-19T13:19:34;44.63;;;35.57;;
18360;SDS011;9308;48.550;9.108;2022-12-19T13:24:39;44.90;;;36.53;;
18360;SDS011;9308;48.550;9.108;2022-12-19T13:27:30;45.00;;;39.43;;
18360;SDS011;9308;48.550;9.108;2022-12-19T13:30:03;41.00;;;36.30;;
18360;SDS011;9308;48.550;9.108;2022-12-19T13:40:22;42.13;;;32.73;;
18360;SDS011;9308;48.550;9.108;2022-12-19T13:46:00;36.40;;;31.67;;
18360;SDS011;9308;48.550;9.108;2022-12-19T13:48:29;36.23;;;30.87;;
18360;SDS011;9308;48.550;9.108;2022-12-19T13:50:58;31.87;;;28.33;;
18360;SDS011;9308;48.550;9.108;2022-12-19T13:53:28;33.13;;;28.90;;
18360;SDS011;9308;48.550;9.108;2022-12-19T13:55:54;32.63;;;29.00;;
18360;SDS011;9308;48.550;9.108;2022-12-19T13:58:24;36.17;;;30.27;;
18360;SDS011;9308;48.550;9.108;2022-12-19T14:00:52;32.00;;;27.70;;
18360;SDS011;9308;48.550;9.108;2022-12-19T14:03:23;33.03;;;28.93;;
18360;SDS011;9308;48.550;9.108;2022-12-19T14:06:04;36.57;;;27.57;;
18360;SDS011;9308;48.550;9.108;2022-12-19T14:08:35;30.50;;;26.43;;
18360;SDS011;9308;48.550;9.108;2022-12-19T14:11:01;30.10;;;25.57;;
18360;SDS011;9308;48.550;9.108;2022-12-19T14:13:32;29.50;;;26.37;;
18360;SDS011;9308;48.550;9.108;2022-12-19T14:16:19;31.67;;;25.77;;
18360;SDS011;9308;48.550;9.108;2022-12-19T14:18:48;30.23;;;25.20;;
18360;SDS011;9308;48.550;9.108;2022-12-19T14:21:15;28.03;;;24.50;;
18360;SDS011;9308;48.550;9.108;2022-12-19T14:23:51;26.87;;;23.67;;
18360;SDS011;9308;48.550;9.108;2022-12-19T14:26:37;28.77;;;23.80;;
18360;SDS011;9308;48.550;9.108;2022-12-19T14:29:08;29.50;;;23.93;;
18360;SDS011;9308;48.550;9.108;2022-12-19T14:31:38;27.20;;;23.87;;
18360;SDS011;9308;48.550;9.108;2022-12-19T14:34:07;34.03;;;28.30;;
18360;SDS011;9308;48.550;9.108;2022-12-19T14:36:52;31.37;;;26.33;;
18360;SDS011;9308;48.550;9.108;2022-12-19T14:39:21;33.30;;;27.60;;
18360;SDS011;9308;48.550;9.108;2022-12-19T14:41:50;31.23;;;27.80;;
18360;SDS011;9308;48.550;9.108;2022-12-19T14:44:46;32.40;;;27.90;;
18360;SDS011;9308;48.550;9.108;2022-12-19T14:47:24;34.00;;;29.57;;
18360;SDS011;9308;48.550;9.108;2022-12-19T14:49:57;34.13;;;29.43;;
18360;SDS011;9308;48.550;9.108;2022-12-19T14:52:33;33.40;;;28.00;;
18360;SDS011;9308;48.550;9.108;2022-12-19T14:55:25;31.53;;;26.17;;
18360;SDS011;9308;48.550;9.108;2022-12-19T14:57:53;30.10;;;26.80;;
18360;SDS011;9308;48.550;9.108;2022-12-19T15:00:21;30.20;;;26.40;;
18360;SDS011;9308;48.550;9.108;2022-12-19T15:02:51;29.57;;;26.20;;
18360;SDS011;9308;48.550;9.108;2022-12-19T15:05:18;28.87;;;24.83;;
18360;SDS011;9308;48.550;9.108;2022-12-19T15:07:45;30.70;;;25.87;;
18360;SDS011;9308;48.550;9.108;2022-12-19T15:10:15;31.90;;;27.43;;
18360;SDS011;9308;48.550;9.108;2022-12-19T15:12:47;29.80;;;26.60;;
18360;SDS011;9308;48.550;9.108;2022-12-19T15:18:48;31.20;;;27.53;;
18360;SDS011;9308;48.550;9.108;2022-12-19T15:21:11;46.03;;;38.67;;
18360;SDS011;9308;48.550;9.108;2022-12-19T15:23:37;52.73;;;45.83;;
18360;SDS011;9308;48.550;9.108;2022-12-19T15:26:04;56.40;;;45.57;;
18360;SDS011;9308;48.550;9.108;2022-12-19T15:28:36;59.40;;;45.53;;
18360;SDS011;9308;48.550;9.108;2022-12-19T15:31:24;51.47;;;42.17;;
18360;SDS011;9308;48.550;9.108;2022-12-19T15:33:54;49.23;;;42.00;;
18360;SDS011;9308;48.550;9.108;2022-12-19T15:36:20;57.03;;;43.50;;
18360;SDS011;9308;48.550;9.108;2022-12-19T15:38:46;50.23;;;42.17;;
18360;SDS011;9308;48.550;9.108;2022-12-19T15:41:13;51.57;;;42.53;;
18360;SDS011;9308;48.550;9.108;2022-12-19T15:43:43;48.20;;;39.40;;
18360;SDS011;9308;48.550;9.108;2022-12-19T15:46:09;55.10;;;42.93;;
18360;SDS011;9308;48.550;9.108;2022-12-19T15:48:36;56.57;;;46.00;;
18360;SDS011;9308;48.550;9.108;2022-12-19T15:51:13;49.60;;;41.93;;
18360;SDS011;9308;48.550;9.108;2022-12-19T15:53:40;47.77;;;40.67;;
18360;SDS011;9308;48.550;9.108;2022-12-19T15:56:10;51.70;;;40.90;;
18360;SDS011;9308;48.550;9.108;2022-12-19T15:58:46;48.10;;;40.40;;
18360;SDS011;9308;48.550;9.108;2022-12-19T16:01:12;53.63;;;42.63;;
18360;SDS011;9308;48.550;9.108;2022-12-19T16:03:38;45.13;;;40.27;;
18360;SDS011;9308;48.550;9.108;2022-12-19T16:06:07;44.77;;;39.97;;
18360;SDS011;9308;48.550;9.108;2022-12-19T16:08:36;49.00;;;42.90;;
18360;SDS011;9308;48.550;9.108;2022-12-19T16:11:02;52.27;;;44.60;;
18360;SDS011;9308;48.550;9.108;2022-12-19T16:13:31;51.83;;;44.03;;
18360;SDS011;9308;48.550;9.108;2022-12-19T16:15:59;48.53;;;40.50;;
18360;SDS011;9308;48.550;9.108;2022-12-19T16:18:24;50.07;;;40.80;;
18360;SDS011;9308;48.550;9.108;2022-12-19T16:20:50;48.27;;;39.67;;
18360;SDS011;9308;48.550;9.108;2022-12-19T16:23:15;41.33;;;36.67;;
18360;SDS011;9308;48.550;9.108;2022-12-19T16:25:45;42.50;;;37.13;;
18360;SDS011;9308;48.550;9.108;2022-12-19T16:28:17;40.40;;;36.07;;
18360;SDS011;9308;48.550;9.108;2022-12-19T16:30:45;43.07;;;35.63;;
18360;SDS011;9308;48.550;9.108;2022-12-19T16:33:24;40.07;;;35.13;;
18360;SDS011;9308;48.550;9.108;2022-12-19T16:35:54;43.37;;;38.13;;
18360;SDS011;9308;48.550;9.108;2022-12-19T16:38:20;40.50;;;35.30;;
18360;SDS011;9308;48.550;9.108;2022-12-19T16:40:47;42.77;;;34.10;;
18360;SDS011;9308;48.550;9.108;2022-12-19T16:43:16;42.07;;;33.10;;
18360;SDS011;9308;48.550;9.108;2022-12-19T16:45:47;37.80;;;33.23;;